sensor_id;sensor_type;location;lat;lon;timestamp;pressure;altitude;pressure_sealevel;temperature;humidity
49949;BME280;35840;45.982;8.890;2023-11-19T00:01:07;98937.81;;;6.45;67.96
49949;BME280;35840;45.982;8.890;2023-11-19T00:03:34;98945.03;;;6.34;66.81
49949;BME280;35840;45.982;8.890;2023-11-19T00:06:01;98951.59;;;5.88;67.86
49949;BME280;35840;45.982;8.890;2023-11-19T00:08:29;98947.59;;;5.79;67.90
49949;BME280;35840;45.982;8.890;2023-11-19T00:10:56;98941.78;;;6.02;67.62
49949;BME280;35840;45.982;8.890;2023-11-19T00:13:22;98937.16;;;6.13;67.13
49949;BME280;35840;45.982;8.890;2023-11-19T00:15:50;98939.78;;;6.12;66.84
49949;BME280;35840;45.982;8.890;2023-11-19T00:18:17;98931.03;;;6.19;67.13
49949;BME280;35840;45.982;8.890;2023-11-19T00:20:44;98921.22;;;6.07;67.40
49949;BME280;35840;45.982;8.890;2023-11-19T00:23:11;98929.91;;;6.01;67.72
49949;BME280;35840;45.982;8.890;2023-11-19T00:25:38;98928.63;;;5.88;67.87
49949;BME280;35840;45.982;8.890;2023-11-19T00:28:05;98932.56;;;5.69;68.15
49949;BME280;35840;45.982;8.890;2023-11-19T00:30:32;98935.56;;;5.82;68.12
49949;BME280;35840;45.982;8.890;2023-11-19T00:32:58;98925.25;;;5.87;67.66
49949;BME280;35840;45.982;8.890;2023-11-19T00:35:25;98924.16;;;5.94;67.41
49949;BME280;35840;45.982;8.890;2023-11-19T00:37:52;98924.16;;;5.94;66.99
49949;BME280;35840;45.982;8.890;2023-11-19T00:40:20;98931.00;;;5.92;66.74
49949;BME280;35840;45.982;8.890;2023-11-19T00:42:49;98932.88;;;5.60;67.12
49949;BME280;35840;45.982;8.890;2023-11-19T00:45:16;98921.25;;;5.23;68.45
49949;BME280;35840;45.982;8.890;2023-11-19T00:47:43;98922.94;;;5.51;68.05
49949;BME280;35840;45.982;8.890;2023-11-19T00:50:10;98918.44;;;5.59;67.88
49949;BME280;35840;45.982;8.890;2023-11-19T00:52:38;98920.81;;;5.65;67.67
49949;BME280;35840;45.982;8.890;2023-11-19T00:55:06;98920.00;;;5.37;68.30
49949;BME280;35840;45.982;8.890;2023-11-19T00:57:34;98929.72;;;5.52;68.35
49949;BME280;35840;45.982;8.890;2023-11-19T01:00:03;98915.19;;;5.54;68.24
49949;BME280;35840;45.982;8.890;2023-11-19T01:02:35;98914.22;;;5.58;67.63
49949;BME280;35840;45.982;8.890;2023-11-19T01:05:02;98921.50;;;5.71;67.73
49949;BME280;35840;45.982;8.890;2023-11-19T01:07:29;98923.44;;;5.62;67.91
49949;BME280;35840;45.982;8.890;2023-11-19T01:09:56;98924.38;;;5.60;67.88
49949;BME280;35840;45.982;8.890;2023-11-19T01:12:23;98933.50;;;5.67;67.87
49949;BME280;35840;45.982;8.890;2023-11-19T01:14:50;98919.78;;;5.71;67.81
49949;BME280;35840;45.982;8.890;2023-11-19T01:17:17;98914.13;;;5.61;67.80
49949;BME280;35840;45.982;8.890;2023-11-19T01:19:43;98910.69;;;5.62;67.65
49949;BME280;35840;45.982;8.890;2023-11-19T01:22:10;98911.78;;;5.55;68.42
49949;BME280;35840;45.982;8.890;2023-11-19T01:24:37;98921.75;;;5.63;67.89
49949;BME280;35840;45.982;8.890;2023-11-19T01:27:04;98910.41;;;5.45;68.50
49949;BME280;35840;45.982;8.890;2023-11-19T01:29:30;98908.25;;;5.59;68.17
49949;BME280;35840;45.982;8.890;2023-11-19T01:31:57;98910.16;;;5.52;67.75
49949;BME280;35840;45.982;8.890;2023-11-19T01:34:24;98912.88;;;5.18;68.54
49949;BME280;35840;45.982;8.890;2023-11-19T01:36:51;98901.47;;;5.30;68.68
49949;BME280;35840;45.982;8.890;2023-11-19T01:39:18;98904.50;;;5.43;67.95
49949;BME280;35840;45.982;8.890;2023-11-19T01:41:46;98906.16;;;5.44;67.67
49949;BME280;35840;45.982;8.890;2023-11-19T01:44:13;98908.78;;;5.42;67.39
49949;BME280;35840;45.982;8.890;2023-11-19T01:46:42;98907.38;;;5.32;67.81
49949;BME280;35840;45.982;8.890;2023-11-19T01:49:11;98910.75;;;5.32;67.62
49949;BME280;35840;45.982;8.890;2023-11-19T01:51:39;98904.75;;;5.35;67.42
49949;BME280;35840;45.982;8.890;2023-11-19T01:54:07;98895.59;;;5.28;67.64
49949;BME280;35840;45.982;8.890;2023-11-19T01:56:35;98911.78;;;5.27;67.75
49949;BME280;35840;45.982;8.890;2023-11-19T01:59:02;98902.19;;;5.07;68.24
49949;BME280;35840;45.982;8.890;2023-11-19T02:01:29;98899.06;;;4.97;68.74
49949;BME280;35840;45.982;8.890;2023-11-19T02:03:57;98894.19;;;4.89;69.40
49949;BME280;35840;45.982;8.890;2023-11-19T02:06:25;98885.16;;;5.07;68.77
49949;BME280;35840;45.982;8.890;2023-11-19T02:08:52;98883.19;;;5.17;68.12
49949;BME280;35840;45.982;8.890;2023-11-19T02:11:19;98881.38;;;5.21;67.66
49949;BME280;35840;45.982;8.890;2023-11-19T02:13:46;98888.69;;;5.03;68.13
49949;BME280;35840;45.982;8.890;2023-11-19T02:16:13;98883.63;;;5.02;68.08
49949;BME280;35840;45.982;8.890;2023-11-19T02:18:41;98889.44;;;5.07;68.19
49949;BME280;35840;45.982;8.890;2023-11-19T02:21:08;98877.44;;;5.10;67.36
49949;BME280;35840;45.982;8.890;2023-11-19T02:23:37;98883.00;;;4.95;67.92
49949;BME280;35840;45.982;8.890;2023-11-19T02:26:47;98884.16;;;4.83;68.76
49949;BME280;35840;45.982;8.890;2023-11-19T02:28:55;98886.31;;;4.97;68.20
49949;BME280;35840;45.982;8.890;2023-11-19T02:31:21;98879.59;;;4.94;68.49
49949;BME280;35840;45.982;8.890;2023-11-19T02:33:49;98882.44;;;4.85;68.73
49949;BME280;35840;45.982;8.890;2023-11-19T02:36:16;98880.72;;;4.54;68.88
49949;BME280;35840;45.982;8.890;2023-11-19T02:38:43;98869.19;;;4.42;69.58
49949;BME280;35840;45.982;8.890;2023-11-19T02:41:10;98872.81;;;4.63;69.72
49949;BME280;35840;45.982;8.890;2023-11-19T02:43:37;98879.81;;;4.87;68.70
49949;BME280;35840;45.982;8.890;2023-11-19T02:46:05;98881.81;;;4.77;69.34
49949;BME280;35840;45.982;8.890;2023-11-19T02:48:36;98875.94;;;4.73;69.30
49949;BME280;35840;45.982;8.890;2023-11-19T02:51:03;98869.88;;;4.77;69.38
49949;BME280;35840;45.982;8.890;2023-11-19T02:53:30;98859.66;;;4.79;68.27
49949;BME280;35840;45.982;8.890;2023-11-19T02:55:58;98840.25;;;4.75;68.75
49949;BME280;35840;45.982;8.890;2023-11-19T02:58:33;98848.06;;;4.69;68.65
49949;BME280;35840;45.982;8.890;2023-11-19T03:01:01;98842.16;;;4.68;68.83
49949;BME280;35840;45.982;8.890;2023-11-19T03:03:37;98823.31;;;4.44;68.91
49949;BME280;35840;45.982;8.890;2023-11-19T03:06:07;98844.81;;;4.63;68.94
49949;BME280;35840;45.982;8.890;2023-11-19T03:08:36;98833.72;;;4.66;69.04
49949;BME280;35840;45.982;8.890;2023-11-19T03:11:03;98841.13;;;4.44;69.88
49949;BME280;35840;45.982;8.890;2023-11-19T03:13:31;98830.44;;;4.62;69.29
49949;BME280;35840;45.982;8.890;2023-11-19T03:15:58;98825.25;;;4.65;68.74
49949;BME280;35840;45.982;8.890;2023-11-19T03:18:25;98834.94;;;4.53;69.07
49949;BME280;35840;45.982;8.890;2023-11-19T03:20:52;98843.22;;;4.61;69.59
49949;BME280;35840;45.982;8.890;2023-11-19T03:23:18;98839.41;;;4.74;68.99
49949;BME280;35840;45.982;8.890;2023-11-19T03:25:45;98837.69;;;4.75;67.75
49949;BME280;35840;45.982;8.890;2023-11-19T03:28:12;98836.22;;;4.68;68.47
49949;BME280;35840;45.982;8.890;2023-11-19T03:30:40;98841.09;;;4.45;68.69
49949;BME280;35840;45.982;8.890;2023-11-19T03:33:07;98841.41;;;4.33;68.98
49949;BME280;35840;45.982;8.890;2023-11-19T03:35:34;98836.19;;;4.38;69.57
49949;BME280;35840;45.982;8.890;2023-11-19T03:38:01;98832.34;;;4.54;68.55
49949;BME280;35840;45.982;8.890;2023-11-19T03:40:28;98837.25;;;4.60;68.28
49949;BME280;35840;45.982;8.890;2023-11-19T03:42:56;98838.16;;;4.59;68.33
49949;BME280;35840;45.982;8.890;2023-11-19T03:45:24;98833.19;;;4.55;68.73
49949;BME280;35840;45.982;8.890;2023-11-19T03:47:51;98831.44;;;4.57;68.51
49949;BME280;35840;45.982;8.890;2023-11-19T03:50:18;98816.06;;;4.60;68.46
49949;BME280;35840;45.982;8.890;2023-11-19T03:52:47;98819.97;;;4.42;68.69
49949;BME280;35840;45.982;8.890;2023-11-19T03:55:14;98815.28;;;4.26;69.14
49949;BME280;35840;45.982;8.890;2023-11-19T03:57:41;98819.38;;;4.32;69.24
49949;BME280;35840;45.982;8.890;2023-11-19T04:00:08;98816.53;;;4.43;68.59
49949;BME280;35840;45.982;8.890;2023-11-19T04:02:41;98801.09;;;4.49;68.44
49949;BME280;35840;45.982;8.890;2023-11-19T04:05:08;98802.03;;;4.45;68.87
49949;BME280;35840;45.982;8.890;2023-11-19T04:07:36;98793.38;;;4.21;69.81
49949;BME280;35840;45.982;8.890;2023-11-19T04:10:04;98801.16;;;4.16;70.01
49949;BME280;35840;45.982;8.890;2023-11-19T04:12:31;98788.00;;;4.31;70.05
49949;BME280;35840;45.982;8.890;2023-11-19T04:14:57;98790.91;;;4.49;68.56
49949;BME280;35840;45.982;8.890;2023-11-19T04:17:27;98786.19;;;4.37;68.64
49949;BME280;35840;45.982;8.890;2023-11-19T04:19:55;98794.53;;;4.40;68.93
49949;BME280;35840;45.982;8.890;2023-11-19T04:22:22;98799.59;;;4.42;68.39
49949;BME280;35840;45.982;8.890;2023-11-19T04:24:50;98788.44;;;4.16;69.70
49949;BME280;35840;45.982;8.890;2023-11-19T04:27:17;98801.69;;;4.27;69.38
49949;BME280;35840;45.982;8.890;2023-11-19T04:29:44;98787.06;;;4.36;68.60
49949;BME280;35840;45.982;8.890;2023-11-19T04:32:12;98799.97;;;3.96;70.14
49949;BME280;35840;45.982;8.890;2023-11-19T04:34:39;98790.78;;;3.91;69.63
49949;BME280;35840;45.982;8.890;2023-11-19T04:37:06;98808.16;;;4.08;70.28
49949;BME280;35840;45.982;8.890;2023-11-19T04:39:35;98787.16;;;4.00;69.79
49949;BME280;35840;45.982;8.890;2023-11-19T04:42:04;98791.34;;;4.02;70.23
49949;BME280;35840;45.982;8.890;2023-11-19T04:44:31;98794.66;;;3.73;70.77
49949;BME280;35840;45.982;8.890;2023-11-19T04:46:57;98786.47;;;3.94;71.37
49949;BME280;35840;45.982;8.890;2023-11-19T04:49:24;98792.44;;;3.93;70.89
49949;BME280;35840;45.982;8.890;2023-11-19T04:51:53;98783.94;;;3.61;70.94
49949;BME280;35840;45.982;8.890;2023-11-19T04:54:20;98761.50;;;3.77;70.92
49949;BME280;35840;45.982;8.890;2023-11-19T04:56:47;98784.06;;;3.88;70.27
49949;BME280;35840;45.982;8.890;2023-11-19T04:59:14;98765.41;;;3.89;70.32
49949;BME280;35840;45.982;8.890;2023-11-19T05:01:41;98778.75;;;3.97;70.18
49949;BME280;35840;45.982;8.890;2023-11-19T05:04:08;98773.66;;;3.97;69.96
49949;BME280;35840;45.982;8.890;2023-11-19T05:06:35;98783.94;;;3.94;70.89
49949;BME280;35840;45.982;8.890;2023-11-19T05:09:02;98775.94;;;4.08;69.97
49949;BME280;35840;45.982;8.890;2023-11-19T05:11:34;98782.53;;;4.16;69.25
49949;BME280;35840;45.982;8.890;2023-11-19T05:14:04;98779.63;;;3.64;71.65
49949;BME280;35840;45.982;8.890;2023-11-19T05:16:31;98773.78;;;3.61;71.21
49949;BME280;35840;45.982;8.890;2023-11-19T05:18:59;98762.91;;;3.88;71.29
49949;BME280;35840;45.982;8.890;2023-11-19T05:21:26;98764.16;;;4.04;70.49
49949;BME280;35840;45.982;8.890;2023-11-19T05:23:52;98775.28;;;3.69;71.87
49949;BME280;35840;45.982;8.890;2023-11-19T05:26:22;98767.63;;;3.70;70.75
49949;BME280;35840;45.982;8.890;2023-11-19T05:28:50;98756.09;;;3.88;71.16
49949;BME280;35840;45.982;8.890;2023-11-19T05:31:17;98759.13;;;4.01;70.73
49949;BME280;35840;45.982;8.890;2023-11-19T05:33:45;98774.63;;;3.93;71.30
49949;BME280;35840;45.982;8.890;2023-11-19T05:36:12;98768.47;;;3.69;71.39
49949;BME280;35840;45.982;8.890;2023-11-19T05:38:39;98765.63;;;3.82;71.30
49949;BME280;35840;45.982;8.890;2023-11-19T05:41:06;98773.75;;;3.94;69.87
49949;BME280;35840;45.982;8.890;2023-11-19T05:43:33;98764.66;;;3.86;70.51
49949;BME280;35840;45.982;8.890;2023-11-19T05:46:00;98753.53;;;3.90;70.96
49949;BME280;35840;45.982;8.890;2023-11-19T05:48:28;98751.47;;;3.71;71.13
49949;BME280;35840;45.982;8.890;2023-11-19T05:50:55;98731.53;;;3.56;71.10
49949;BME280;35840;45.982;8.890;2023-11-19T05:53:22;98758.03;;;3.80;70.90
49949;BME280;35840;45.982;8.890;2023-11-19T05:55:49;98758.44;;;3.65;71.61
49949;BME280;35840;45.982;8.890;2023-11-19T05:58:25;98762.44;;;3.73;71.17
49949;BME280;35840;45.982;8.890;2023-11-19T06:00:52;98742.06;;;3.75;71.02
49949;BME280;35840;45.982;8.890;2023-11-19T06:03:19;98761.22;;;3.87;70.20
49949;BME280;35840;45.982;8.890;2023-11-19T06:05:48;98748.09;;;3.71;70.56
49949;BME280;35840;45.982;8.890;2023-11-19T06:08:15;98744.94;;;3.28;72.76
49949;BME280;35840;45.982;8.890;2023-11-19T06:10:44;98749.47;;;3.50;72.72
49949;BME280;35840;45.982;8.890;2023-11-19T06:13:13;98744.88;;;3.64;71.19
49949;BME280;35840;45.982;8.890;2023-11-19T06:15:42;98732.78;;;3.72;71.63
49949;BME280;35840;45.982;8.890;2023-11-19T06:18:09;98750.00;;;3.62;71.38
49949;BME280;35840;45.982;8.890;2023-11-19T06:20:38;98752.63;;;3.59;72.29
49949;BME280;35840;45.982;8.890;2023-11-19T06:23:08;98738.09;;;3.65;72.01
49949;BME280;35840;45.982;8.890;2023-11-19T06:25:35;98741.34;;;3.70;72.05
49949;BME280;35840;45.982;8.890;2023-11-19T06:28:03;98746.28;;;3.76;71.53
49949;BME280;35840;45.982;8.890;2023-11-19T06:30:30;98746.00;;;3.54;73.04
49949;BME280;35840;45.982;8.890;2023-11-19T06:32:59;98737.28;;;3.62;73.30
49949;BME280;35840;45.982;8.890;2023-11-19T06:35:27;98744.22;;;3.57;71.53
49949;BME280;35840;45.982;8.890;2023-11-19T06:37:56;98754.44;;;3.54;72.53
49949;BME280;35840;45.982;8.890;2023-11-19T06:40:23;98712.88;;;3.22;73.54
49949;BME280;35840;45.982;8.890;2023-11-19T06:42:50;98706.19;;;3.20;74.26
49949;BME280;35840;45.982;8.890;2023-11-19T06:45:19;98711.66;;;3.37;72.83
49949;BME280;35840;45.982;8.890;2023-11-19T06:47:45;98737.19;;;3.66;71.53
49949;BME280;35840;45.982;8.890;2023-11-19T06:50:12;98739.47;;;3.76;71.24
49949;BME280;35840;45.982;8.890;2023-11-19T06:52:39;98753.84;;;3.77;71.52
49949;BME280;35840;45.982;8.890;2023-11-19T06:55:07;98757.34;;;3.73;71.75
49949;BME280;35840;45.982;8.890;2023-11-19T06:57:35;98752.22;;;3.75;71.44
49949;BME280;35840;45.982;8.890;2023-11-19T07:00:02;98749.34;;;3.56;71.95
49949;BME280;35840;45.982;8.890;2023-11-19T07:02:29;98760.28;;;3.58;72.22
49949;BME280;35840;45.982;8.890;2023-11-19T07:04:57;98761.63;;;3.38;73.59
49949;BME280;35840;45.982;8.890;2023-11-19T07:07:24;98755.50;;;3.11;74.72
49949;BME280;35840;45.982;8.890;2023-11-19T07:09:50;98754.75;;;3.42;73.51
49949;BME280;35840;45.982;8.890;2023-11-19T07:12:17;98757.56;;;3.64;72.87
49949;BME280;35840;45.982;8.890;2023-11-19T07:14:44;98747.22;;;3.72;72.34
49949;BME280;35840;45.982;8.890;2023-11-19T07:17:11;98753.81;;;3.79;72.19
49949;BME280;35840;45.982;8.890;2023-11-19T07:19:38;98743.06;;;3.69;72.27
49949;BME280;35840;45.982;8.890;2023-11-19T07:22:06;98742.44;;;3.59;73.36
49949;BME280;35840;45.982;8.890;2023-11-19T07:24:33;98738.00;;;3.68;72.85
49949;BME280;35840;45.982;8.890;2023-11-19T07:27:00;98747.91;;;3.77;72.12
49949;BME280;35840;45.982;8.890;2023-11-19T07:29:27;98752.03;;;3.50;73.61
49949;BME280;35840;45.982;8.890;2023-11-19T07:31:55;98737.66;;;3.47;74.68
49949;BME280;35840;45.982;8.890;2023-11-19T07:34:24;98737.50;;;3.55;74.99
49949;BME280;35840;45.982;8.890;2023-11-19T07:36:51;98742.06;;;3.75;73.12
49949;BME280;35840;45.982;8.890;2023-11-19T07:39:19;98741.53;;;3.62;73.69
49949;BME280;35840;45.982;8.890;2023-11-19T07:41:47;98744.91;;;3.62;74.28
49949;BME280;35840;45.982;8.890;2023-11-19T07:44:14;98754.34;;;3.59;74.60
49949;BME280;35840;45.982;8.890;2023-11-19T07:46:41;98754.00;;;3.73;74.26
49949;BME280;35840;45.982;8.890;2023-11-19T07:49:09;98757.84;;;3.55;75.42
49949;BME280;35840;45.982;8.890;2023-11-19T07:51:37;98760.69;;;3.75;75.36
49949;BME280;35840;45.982;8.890;2023-11-19T07:54:03;98752.41;;;4.00;73.58
49949;BME280;35840;45.982;8.890;2023-11-19T07:56:32;98750.41;;;4.11;73.91
49949;BME280;35840;45.982;8.890;2023-11-19T07:59:02;98750.25;;;4.16;74.93
49949;BME280;35840;45.982;8.890;2023-11-19T08:01:28;98746.75;;;4.20;74.57
49949;BME280;35840;45.982;8.890;2023-11-19T08:03:55;98749.69;;;4.36;74.43
49949;BME280;35840;45.982;8.890;2023-11-19T08:06:25;98754.72;;;4.38;74.53
49949;BME280;35840;45.982;8.890;2023-11-19T08:08:52;98746.91;;;4.45;74.93
49949;BME280;35840;45.982;8.890;2023-11-19T08:11:19;98763.25;;;4.67;75.06
49949;BME280;35840;45.982;8.890;2023-11-19T08:13:47;98751.06;;;4.76;74.19
49949;BME280;35840;45.982;8.890;2023-11-19T08:16:14;98760.91;;;4.87;73.29
49949;BME280;35840;45.982;8.890;2023-11-19T08:18:43;98755.69;;;4.92;73.55
49949;BME280;35840;45.982;8.890;2023-11-19T08:21:10;98752.91;;;4.99;72.79
49949;BME280;35840;45.982;8.890;2023-11-19T08:23:37;98761.28;;;5.03;72.82
49949;BME280;35840;45.982;8.890;2023-11-19T08:26:05;98759.63;;;5.02;72.46
49949;BME280;35840;45.982;8.890;2023-11-19T08:28:34;98772.81;;;5.15;72.84
49949;BME280;35840;45.982;8.890;2023-11-19T08:31:02;98763.34;;;5.18;71.84
49949;BME280;35840;45.982;8.890;2023-11-19T08:33:32;98762.72;;;5.12;70.65
49949;BME280;35840;45.982;8.890;2023-11-19T08:35:58;98766.09;;;5.12;70.78
49949;BME280;35840;45.982;8.890;2023-11-19T08:38:25;98750.03;;;5.10;70.99
49949;BME280;35840;45.982;8.890;2023-11-19T08:40:55;98755.50;;;4.98;70.93
49949;BME280;35840;45.982;8.890;2023-11-19T08:43:27;98750.63;;;4.90;70.68
49949;BME280;35840;45.982;8.890;2023-11-19T08:45:54;98744.22;;;5.05;70.47
49949;BME280;35840;45.982;8.890;2023-11-19T08:48:20;98731.88;;;5.20;70.62
49949;BME280;35840;45.982;8.890;2023-11-19T08:50:47;98748.53;;;5.30;69.88
49949;BME280;35840;45.982;8.890;2023-11-19T08:53:15;98749.16;;;5.37;70.01
49949;BME280;35840;45.982;8.890;2023-11-19T08:55:42;98745.75;;;5.38;69.28
49949;BME280;35840;45.982;8.890;2023-11-19T08:58:09;98738.88;;;5.40;69.13
49949;BME280;35840;45.982;8.890;2023-11-19T09:00:35;98744.50;;;5.49;70.20
49949;BME280;35840;45.982;8.890;2023-11-19T09:03:02;98737.81;;;5.45;70.53
49949;BME280;35840;45.982;8.890;2023-11-19T09:05:30;98744.59;;;5.46;70.78
49949;BME280;35840;45.982;8.890;2023-11-19T09:07:58;98746.16;;;5.50;70.72
49949;BME280;35840;45.982;8.890;2023-11-19T09:10:25;98732.53;;;5.51;70.52
49949;BME280;35840;45.982;8.890;2023-11-19T09:12:53;98735.59;;;5.61;70.23
49949;BME280;35840;45.982;8.890;2023-11-19T09:15:23;98737.19;;;5.64;70.12
49949;BME280;35840;45.982;8.890;2023-11-19T09:17:50;98726.88;;;5.68;69.95
49949;BME280;35840;45.982;8.890;2023-11-19T09:20:17;98723.47;;;5.68;70.09
49949;BME280;35840;45.982;8.890;2023-11-19T09:22:44;98731.97;;;5.68;70.19
49949;BME280;35840;45.982;8.890;2023-11-19T09:25:11;98740.34;;;5.72;70.11
49949;BME280;35840;45.982;8.890;2023-11-19T09:27:44;98742.00;;;5.73;69.87
49949;BME280;35840;45.982;8.890;2023-11-19T09:30:11;98734.25;;;5.76;70.98
49949;BME280;35840;45.982;8.890;2023-11-19T09:32:37;98734.13;;;5.79;70.88
49949;BME280;35840;45.982;8.890;2023-11-19T09:35:05;98720.53;;;5.79;70.78
49949;BME280;35840;45.982;8.890;2023-11-19T09:37:32;98719.56;;;5.83;70.55
49949;BME280;35840;45.982;8.890;2023-11-19T09:39:59;98712.00;;;5.80;70.56
49949;BME280;35840;45.982;8.890;2023-11-19T09:42:26;98722.00;;;5.86;69.83
49949;BME280;35840;45.982;8.890;2023-11-19T09:44:53;98721.19;;;5.84;69.94
49949;BME280;35840;45.982;8.890;2023-11-19T09:47:21;98716.25;;;5.79;69.22
49949;BME280;35840;45.982;8.890;2023-11-19T09:49:49;98704.31;;;5.81;69.02
49949;BME280;35840;45.982;8.890;2023-11-19T09:52:18;98700.59;;;5.90;68.88
49949;BME280;35840;45.982;8.890;2023-11-19T09:54:45;98703.09;;;5.92;69.29
49949;BME280;35840;45.982;8.890;2023-11-19T09:57:13;98703.63;;;6.01;69.36
49949;BME280;35840;45.982;8.890;2023-11-19T09:59:42;98697.91;;;5.93;69.42
49949;BME280;35840;45.982;8.890;2023-11-19T10:02:10;98709.03;;;6.16;68.94
49949;BME280;35840;45.982;8.890;2023-11-19T10:04:38;98695.03;;;6.26;69.31
49949;BME280;35840;45.982;8.890;2023-11-19T10:07:06;98688.28;;;6.25;69.27
49949;BME280;35840;45.982;8.890;2023-11-19T10:09:34;98681.41;;;6.27;69.39
49949;BME280;35840;45.982;8.890;2023-11-19T10:12:02;98690.44;;;6.36;69.37
49949;BME280;35840;45.982;8.890;2023-11-19T10:14:30;98716.03;;;6.34;68.87
49949;BME280;35840;45.982;8.890;2023-11-19T10:16:57;98708.41;;;6.33;68.41
49949;BME280;35840;45.982;8.890;2023-11-19T10:19:25;98698.88;;;6.38;68.28
49949;BME280;35840;45.982;8.890;2023-11-19T10:21:52;98694.28;;;6.46;68.04
49949;BME280;35840;45.982;8.890;2023-11-19T10:24:31;98669.81;;;6.41;67.91
49949;BME280;35840;45.982;8.890;2023-11-19T10:27:00;98674.00;;;6.65;68.47
49949;BME280;35840;45.982;8.890;2023-11-19T10:29:29;98658.59;;;6.87;69.67
49949;BME280;35840;45.982;8.890;2023-11-19T10:31:57;98653.50;;;6.87;68.28
49949;BME280;35840;45.982;8.890;2023-11-19T10:34:45;98666.63;;;7.00;67.41
49949;BME280;35840;45.982;8.890;2023-11-19T10:37:30;98642.78;;;7.00;67.09
49949;BME280;35840;45.982;8.890;2023-11-19T10:39:59;98639.13;;;7.05;66.43
49949;BME280;35840;45.982;8.890;2023-11-19T10:42:26;98638.63;;;7.18;65.11
49949;BME280;35840;45.982;8.890;2023-11-19T10:44:53;98619.31;;;7.31;64.38
49949;BME280;35840;45.982;8.890;2023-11-19T10:47:20;98618.66;;;7.47;64.39
49949;BME280;35840;45.982;8.890;2023-11-19T10:50:04;98624.53;;;7.49;64.18
49949;BME280;35840;45.982;8.890;2023-11-19T10:52:33;98619.94;;;7.57;63.49
49949;BME280;35840;45.982;8.890;2023-11-19T10:55:00;98617.84;;;7.65;62.31
49949;BME280;35840;45.982;8.890;2023-11-19T10:57:32;98626.22;;;7.69;62.46
49949;BME280;35840;45.982;8.890;2023-11-19T11:00:04;98623.53;;;7.72;61.47
49949;BME280;35840;45.982;8.890;2023-11-19T11:02:41;98613.00;;;7.78;61.07
49949;BME280;35840;45.982;8.890;2023-11-19T11:05:09;98602.97;;;7.73;58.56
49949;BME280;35840;45.982;8.890;2023-11-19T11:07:38;98605.53;;;7.73;59.13
49949;BME280;35840;45.982;8.890;2023-11-19T11:10:08;98592.88;;;7.70;59.48
49949;BME280;35840;45.982;8.890;2023-11-19T11:12:37;98599.81;;;7.68;60.19
49949;BME280;35840;45.982;8.890;2023-11-19T11:15:10;98590.53;;;7.66;59.58
49949;BME280;35840;45.982;8.890;2023-11-19T11:17:43;98586.38;;;7.63;59.55
49949;BME280;35840;45.982;8.890;2023-11-19T11:20:11;98585.50;;;7.64;59.33
49949;BME280;35840;45.982;8.890;2023-11-19T11:25:41;98595.88;;;7.80;56.56
49949;BME280;35840;45.982;8.890;2023-11-19T11:36:53;98585.25;;;8.07;56.48
49949;BME280;35840;45.982;8.890;2023-11-19T11:39:26;98587.81;;;8.07;55.02
49949;BME280;35840;45.982;8.890;2023-11-19T11:44:58;98577.19;;;8.34;53.50
49949;BME280;35840;45.982;8.890;2023-11-19T11:50:18;98563.19;;;8.58;56.15
49949;BME280;35840;45.982;8.890;2023-11-19T11:57:58;98548.34;;;8.83;54.93
49949;BME280;35840;45.982;8.890;2023-11-19T12:00:39;98550.28;;;8.95;54.77
49949;BME280;35840;45.982;8.890;2023-11-19T12:03:07;98545.75;;;9.00;54.34
49949;BME280;35840;45.982;8.890;2023-11-19T12:05:42;98547.66;;;8.96;53.53
49949;BME280;35840;45.982;8.890;2023-11-19T12:08:14;98538.06;;;9.00;53.52
49949;BME280;35840;45.982;8.890;2023-11-19T12:10:49;98535.78;;;9.11;55.32
49949;BME280;35840;45.982;8.890;2023-11-19T12:13:17;98545.56;;;9.21;55.88
49949;BME280;35840;45.982;8.890;2023-11-19T12:18:30;98529.44;;;9.51;53.62
49949;BME280;35840;45.982;8.890;2023-11-19T12:20:58;98516.97;;;9.44;53.23
49949;BME280;35840;45.982;8.890;2023-11-19T12:23:29;98513.47;;;9.45;54.92
49949;BME280;35840;45.982;8.890;2023-11-19T12:25:57;98510.75;;;9.48;54.96
49949;BME280;35840;45.982;8.890;2023-11-19T12:28:24;98516.06;;;9.61;51.62
49949;BME280;35840;45.982;8.890;2023-11-19T12:31:07;98517.03;;;9.59;51.59
49949;BME280;35840;45.982;8.890;2023-11-19T12:33:36;98513.72;;;9.57;52.20
49949;BME280;35840;45.982;8.890;2023-11-19T12:36:03;98512.16;;;9.70;52.51
49949;BME280;35840;45.982;8.890;2023-11-19T12:38:32;98513.97;;;9.68;50.73
49949;BME280;35840;45.982;8.890;2023-11-19T12:41:09;98522.25;;;9.89;50.56
49949;BME280;35840;45.982;8.890;2023-11-19T12:43:39;98519.00;;;10.02;51.43
49949;BME280;35840;45.982;8.890;2023-11-19T12:46:19;98524.06;;;9.87;50.44
49949;BME280;35840;45.982;8.890;2023-11-19T12:48:48;98523.66;;;9.79;49.50
49949;BME280;35840;45.982;8.890;2023-11-19T12:51:15;98515.69;;;9.83;50.63
49949;BME280;35840;45.982;8.890;2023-11-19T12:53:50;98512.22;;;9.85;50.21
49949;BME280;35840;45.982;8.890;2023-11-19T12:56:21;98500.16;;;9.87;50.97
49949;BME280;35840;45.982;8.890;2023-11-19T12:58:49;98510.19;;;9.75;51.80
49949;BME280;35840;45.982;8.890;2023-11-19T13:01:18;98500.81;;;9.74;51.69
49949;BME280;35840;45.982;8.890;2023-11-19T13:03:46;98499.56;;;9.65;51.95
49949;BME280;35840;45.982;8.890;2023-11-19T13:06:15;98487.72;;;9.63;50.98
49949;BME280;35840;45.982;8.890;2023-11-19T13:08:47;98489.22;;;9.67;49.84
49949;BME280;35840;45.982;8.890;2023-11-19T13:11:33;98480.28;;;9.74;48.24
49949;BME280;35840;45.982;8.890;2023-11-19T13:14:02;98479.66;;;9.85;48.61
49949;BME280;35840;45.982;8.890;2023-11-19T13:16:32;98475.09;;;9.90;48.40
49949;BME280;35840;45.982;8.890;2023-11-19T13:18:59;98467.75;;;9.84;47.47
49949;BME280;35840;45.982;8.890;2023-11-19T13:21:27;98481.22;;;9.88;47.55
49949;BME280;35840;45.982;8.890;2023-11-19T13:23:53;98469.38;;;9.85;47.19
49949;BME280;35840;45.982;8.890;2023-11-19T13:26:20;98474.06;;;9.78;48.03
49949;BME280;35840;45.982;8.890;2023-11-19T13:28:47;98479.84;;;9.82;47.73
49949;BME280;35840;45.982;8.890;2023-11-19T13:31:14;98478.16;;;9.97;48.96
49949;BME280;35840;45.982;8.890;2023-11-19T13:33:41;98480.13;;;10.08;47.54
49949;BME280;35840;45.982;8.890;2023-11-19T13:36:09;98477.06;;;10.31;48.79
49949;BME280;35840;45.982;8.890;2023-11-19T13:38:38;98475.81;;;10.39;49.31
49949;BME280;35840;45.982;8.890;2023-11-19T13:41:07;98464.22;;;10.31;48.62